CheckWX is a tool to help pilots better visualize weather data.  It is not intended as a substitute for an official pre-flight weather briefing.

21:53:06 UTC

KMIV METAR
Millville Municipal Airport
Millville, New Jersey, USA
Current

59 mins ago

KMIV 232054Z AUTO 23004KT 10SM -RA FEW039 SCT090 BKN110 24/19 A3000 RMK AO2 RAB48 SLP157 P0000 60000 T02390189 56026
Observed
May-23 @ 20:54 UTC
Wind
  • 230° at 4 KTS
Visibility
10 SM
Flight Rules
VFR
Conditions
Light Rain
Cloud Levels
  • Few at 3,900' AGL
  • Scattered at 9,000' AGL
  • Broken at 11,000' AGL
Temperature
24°C / 75°F
Dewpoint
19°C / 66°F
Humidity
74%
Altimeter
30" Hg
Pressure
1015.92 hPa
Current Rain
0.01"
Previous

2 hours ago

KMIV 231954Z AUTO 22008KT 190V250 10SM CLR 25/18 A3001 RMK AO2 SLP160 T02500178
Observed
May-23 @ 19:54 UTC
Wind
  • 220° at 8 KTS
Visibility
10 SM
Flight Rules
VFR
Cloud Levels
  • Clear skies
Temperature
25°C / 77°F
Dewpoint
18°C / 64°F
Humidity
65%
Altimeter
30.01" Hg
Pressure
1016.22 hPa
Previous

3 hours ago

KMIV 231854Z AUTO 17005KT 10SM SCT100 SCT110 24/18 A3004 RMK AO2 SLP171 T02390178
Observed
May-23 @ 18:54 UTC
Wind
  • 170° at 5 KTS
Visibility
10 SM
Flight Rules
VFR
Cloud Levels
  • Scattered at 10,000' AGL
  • Scattered at 11,000' AGL
Temperature
24°C / 75°F
Dewpoint
18°C / 64°F
Humidity
69%
Altimeter
30.04" Hg
Pressure
1017.32 hPa